KLM589 EHAM-DGAA
Flight info
| Callsign | KLM589 |
|---|---|
| Flight time | 6h 26m |
| Altitude | 23000 |
| Route | WOODY N872 CIV/N0482F350 N872 MEDIL DCT KOVIN DCT DUCRA DCT RESMI DCT DEKOD DCT DISAK DCT DIRMO DCT ETAMO DCT ADEKA DCT MOKDI DCT MEN DCT BADAM DCT KANIG DCT KENAS DCT POS N855 GENIO DCT MOGIL UB31 ZEM/N0484F360 UZ333 KAHIL UB726 GHA/N0490F350 UA615 TMS/N0488F370 UA604 EREBO/N0492F360 DCT MIGNI DCT ABALA DCT IPUTA DCT TATAT DCT KILMO DCT LITEX LITEX1B |
| Aircraft | B77W/H-SDE1E2E3FGHIJ2J3J4J5M1RWXY/LB1D1 |
Departure
| Time | 2026-05-04 15:37 |
|---|---|
| Airport | Amsterdam Airport Schiphol (EHAM) |
Arrival
| Time | 2026-05-04 22:04 |
|---|---|
| Airport | Kotoka International Airport (DGAA) |
| Time | Latitude | Longitude | Altitude | Speed | Heading |
|---|---|---|---|---|---|
| 2026-05-04 14:52 | 52.31318 | 4.76670 | -10 ft | 0 kts | 123° |
| 2026-05-04 14:53 | 52.31319 | 4.76670 | -10 ft | 0 kts | 123° |
| 2026-05-04 15:08 | 52.31319 | 4.76669 | 20 ft | 0 kts | 123° |
| 2026-05-04 15:16 | 52.31333 | 4.76634 | -12 ft | 4 kts | 121° |
| 2026-05-04 15:16 | 52.31346 | 4.76596 | 7 ft | 4 kts | 114° |
| 2026-05-04 15:16 | 52.31348 | 4.76537 | 6 ft | 2 kts | 34° |
| 2026-05-04 15:17 | 52.31365 | 4.76557 | 6 ft | 2 kts | 33° |
| 2026-05-04 15:17 | 52.31366 | 4.76557 | 6 ft | 7 kts | 33° |
| 2026-05-04 15:22 | 52.31374 | 4.76566 | 4 ft | 5 kts | 33° |
| 2026-05-04 15:22 | 52.31405 | 4.76598 | 4 ft | 5 kts | 33° |
| 2026-05-04 15:22 | 52.31492 | 4.76672 | 4 ft | 11 kts | 8° |
| 2026-05-04 15:23 | 52.31547 | 4.76603 | 4 ft | 11 kts | 281° |
| 2026-05-04 15:23 | 52.31547 | 4.76477 | 4 ft | 11 kts | 268° |
| 2026-05-04 15:23 | 52.31543 | 4.76352 | 4 ft | 11 kts | 268° |
| 2026-05-04 15:23 | 52.31540 | 4.76226 | 4 ft | 11 kts | 268° |
| 2026-05-04 15:24 | 52.31527 | 4.75955 | 4 ft | 15 kts | 268° |
| 2026-05-04 15:24 | 52.31517 | 4.75606 | 4 ft | 15 kts | 266° |
| 2026-05-04 15:25 | 52.31511 | 4.75432 | 4 ft | 15 kts | 268° |
| 2026-05-04 15:25 | 52.31505 | 4.75225 | 3 ft | 20 kts | 266° |
| 2026-05-04 15:25 | 52.31496 | 4.75002 | 4 ft | 20 kts | 266° |
| 2026-05-04 15:26 | 52.31482 | 4.74562 | 4 ft | 20 kts | 267° |
| 2026-05-04 15:26 | 52.31476 | 4.74378 | 4 ft | 9 kts | 266° |
| 2026-05-04 15:26 | 52.31584 | 4.74302 | 4 ft | 13 kts | 2° |
| 2026-05-04 15:27 | 52.31682 | 4.74308 | 4 ft | 14 kts | 2° |
| 2026-05-04 15:27 | 52.31886 | 4.74330 | 4 ft | 17 kts | 3° |
| 2026-05-04 15:28 | 52.32029 | 4.74221 | 4 ft | 12 kts | 276° |
| 2026-05-04 15:28 | 52.32036 | 4.74091 | 3 ft | 12 kts | 275° |
| 2026-05-04 15:28 | 52.32044 | 4.73828 | 4 ft | 12 kts | 272° |
| 2026-05-04 15:29 | 52.32048 | 4.73694 | 4 ft | 12 kts | 273° |
| 2026-05-04 15:30 | 52.32233 | 4.73153 | 4 ft | 23 kts | 320° |
| 2026-05-04 15:30 | 52.32593 | 4.72645 | 4 ft | 23 kts | 319° |
| 2026-05-04 15:31 | 52.32813 | 4.72271 | 4 ft | 23 kts | 311° |
| 2026-05-04 15:31 | 52.32920 | 4.72073 | 4 ft | 23 kts | 311° |
| 2026-05-04 15:32 | 52.33129 | 4.71505 | 5 ft | 13 kts | 236° |
| 2026-05-04 15:32 | 52.33000 | 4.71309 | 4 ft | 13 kts | 221° |
| 2026-05-04 15:33 | 52.32875 | 4.71122 | 4 ft | 8 kts | 238° |
| 2026-05-04 15:34 | 52.32866 | 4.71088 | 3 ft | 0 kts | 251° |
| 2026-05-04 15:34 | 52.32866 | 4.71085 | 3 ft | 0 kts | 251° |
| 2026-05-04 15:34 | 52.32865 | 4.71079 | 3 ft | 0 kts | 256° |
| 2026-05-04 15:35 | 52.32864 | 4.71076 | 3 ft | 0 kts | 257° |
| 2026-05-04 15:35 | 52.32864 | 4.71072 | 3 ft | 1 kts | 257° |
| 2026-05-04 15:36 | 52.32864 | 4.70948 | 3 ft | 11 kts | 286° |
| 2026-05-04 15:36 | 52.32947 | 4.70901 | 2 ft | 24 kts | 1° |
| 2026-05-04 15:36 | 52.33330 | 4.70935 | 2 ft | 90 kts | 3° |
| 2026-05-04 15:37 | 52.34172 | 4.71011 | 1 ft | 151 kts | 3° |
| 2026-05-04 15:37 | 52.35323 | 4.71090 | 307 ft | 169 kts | 2° |
| 2026-05-04 15:37 | 52.36513 | 4.71208 | 821 ft | 175 kts | 2° |
| 2026-05-04 15:37 | 52.37722 | 4.71326 | 1457 ft | 178 kts | 2° |
| 2026-05-04 15:38 | 52.39044 | 4.71457 | 1692 ft | 204 kts | 2° |
| 2026-05-04 15:38 | 52.40530 | 4.71801 | 1880 ft | 229 kts | 19° |
| 2026-05-04 15:38 | 52.41844 | 4.73371 | 2243 ft | 245 kts | 55° |
| 2026-05-04 15:38 | 52.42413 | 4.76005 | 2701 ft | 257 kts | 90° |
| 2026-05-04 15:39 | 52.41958 | 4.78811 | 3360 ft | 261 kts | 124° |
| 2026-05-04 15:39 | 52.40591 | 4.80747 | 3975 ft | 266 kts | 159° |
| 2026-05-04 15:39 | 52.37002 | 4.81473 | 5510 ft | 260 kts | 175° |
| 2026-05-04 15:40 | 52.35156 | 4.81889 | 5783 ft | 274 kts | 171° |
| 2026-05-04 15:40 | 52.33246 | 4.82320 | 6254 ft | 279 kts | 185° |
| 2026-05-04 15:40 | 52.31361 | 4.81605 | 6952 ft | 276 kts | 198° |
| 2026-05-04 15:40 | 52.29535 | 4.80680 | 7709 ft | 276 kts | 198° |
| 2026-05-04 15:41 | 52.27703 | 4.79742 | 8454 ft | 276 kts | 198° |
| 2026-05-04 15:41 | 52.25864 | 4.78810 | 9189 ft | 278 kts | 198° |
| 2026-05-04 15:41 | 52.24003 | 4.77886 | 9865 ft | 282 kts | 198° |
| 2026-05-04 15:41 | 52.22104 | 4.76939 | 10366 ft | 291 kts | 198° |
| 2026-05-04 15:42 | 52.20099 | 4.75923 | 10529 ft | 313 kts | 198° |
| 2026-05-04 15:42 | 52.17948 | 4.74836 | 10707 ft | 334 kts | 198° |
| 2026-05-04 15:42 | 52.15656 | 4.73680 | 10871 ft | 356 kts | 198° |
| 2026-05-04 15:42 | 52.13255 | 4.72472 | 11334 ft | 366 kts | 198° |
| 2026-05-04 15:43 | 52.10790 | 4.71234 | 11913 ft | 373 kts | 198° |
| 2026-05-04 15:43 | 52.08296 | 4.69985 | 12661 ft | 376 kts | 198° |
| 2026-05-04 15:43 | 52.05787 | 4.68731 | 13419 ft | 379 kts | 198° |
| 2026-05-04 15:43 | 52.03250 | 4.67463 | 14086 ft | 383 kts | 198° |
| 2026-05-04 15:44 | 52.00687 | 4.66182 | 14700 ft | 388 kts | 198° |
| 2026-05-04 15:44 | 51.98937 | 4.65309 | 15148 ft | 390 kts | 198° |
| 2026-05-04 15:44 | 51.96338 | 4.64014 | 15844 ft | 392 kts | 198° |
| 2026-05-04 15:44 | 51.93749 | 4.62725 | 16502 ft | 396 kts | 198° |
| 2026-05-04 15:45 | 51.91098 | 4.61406 | 17070 ft | 402 kts | 198° |
| 2026-05-04 15:45 | 51.88408 | 4.60070 | 17708 ft | 406 kts | 198° |
| 2026-05-04 15:45 | 51.85701 | 4.58728 | 18376 ft | 409 kts | 198° |
| 2026-05-04 15:45 | 51.82966 | 4.57373 | 18989 ft | 412 kts | 198° |
| 2026-05-04 15:46 | 51.80222 | 4.56016 | 19624 ft | 413 kts | 198° |
| 2026-05-04 15:46 | 51.77467 | 4.54655 | 20276 ft | 415 kts | 198° |
| 2026-05-04 15:46 | 51.74706 | 4.53291 | 20935 ft | 416 kts | 198° |
| 2026-05-04 15:46 | 51.71924 | 4.51922 | 21568 ft | 419 kts | 198° |
| 2026-05-04 15:47 | 51.69135 | 4.50550 | 22176 ft | 421 kts | 197° |
| 2026-05-04 15:47 | 51.66326 | 4.49169 | 22792 ft | 423 kts | 197° |
| 2026-05-04 15:47 | 51.63500 | 4.47781 | 23411 ft | 425 kts | 198° |
| 2026-05-04 15:47 | 51.60664 | 4.46390 | 23945 ft | 427 kts | 198° |
| 2026-05-04 15:48 | 51.57820 | 4.44997 | 24484 ft | 428 kts | 197° |
| 2026-05-04 15:48 | 51.54965 | 4.43600 | 25035 ft | 430 kts | 197° |
| 2026-05-04 15:48 | 51.49228 | 4.40799 | 26068 ft | 432 kts | 197° |
| 2026-05-04 15:49 | 51.46339 | 4.39391 | 26502 ft | 435 kts | 197° |
| 2026-05-04 15:49 | 51.43435 | 4.37978 | 26916 ft | 438 kts | 197° |
| 2026-05-04 15:49 | 51.40524 | 4.36475 | 27370 ft | 440 kts | 200° |
| 2026-05-04 15:49 | 51.37709 | 4.34546 | 27843 ft | 441 kts | 206° |
| 2026-05-04 15:50 | 51.34951 | 4.32383 | 28310 ft | 442 kts | 205° |
| 2026-05-04 15:50 | 51.32161 | 4.30273 | 28743 ft | 444 kts | 205° |
| 2026-05-04 15:50 | 51.29357 | 4.28175 | 29133 ft | 446 kts | 205° |
| 2026-05-04 15:50 | 51.26543 | 4.26040 | 29501 ft | 448 kts | 205° |
| 2026-05-04 15:51 | 51.23761 | 4.23918 | 29863 ft | 450 kts | 205° |
| 2026-05-04 15:51 | 51.20928 | 4.21760 | 30191 ft | 452 kts | 205° |
| 2026-05-04 15:51 | 51.18098 | 4.19612 | 30595 ft | 450 kts | 205° |
| 2026-05-04 15:51 | 51.15239 | 4.17630 | 31071 ft | 446 kts | 200° |
| 2026-05-04 15:52 | 51.12310 | 4.16045 | 31515 ft | 444 kts | 199° |
| 2026-05-04 15:52 | 51.09388 | 4.14488 | 31924 ft | 442 kts | 199° |
| 2026-05-04 15:52 | 51.06476 | 4.12916 | 32299 ft | 441 kts | 199° |
| 2026-05-04 15:52 | 51.03582 | 4.11340 | 32693 ft | 439 kts | 200° |
| 2026-05-04 15:53 | 51.00696 | 4.09764 | 33059 ft | 438 kts | 200° |
| 2026-05-04 15:53 | 50.97825 | 4.08197 | 33439 ft | 436 kts | 200° |
| 2026-05-04 15:53 | 50.94959 | 4.06635 | 33810 ft | 434 kts | 200° |
| 2026-05-04 15:53 | 50.92109 | 4.05085 | 34133 ft | 433 kts | 200° |
| 2026-05-04 15:54 | 50.89256 | 4.03537 | 34330 ft | 434 kts | 200° |
| 2026-05-04 15:54 | 50.86416 | 4.01891 | 34480 ft | 436 kts | 203° |
| 2026-05-04 15:54 | 50.83601 | 4.00076 | 34659 ft | 437 kts | 203° |
| 2026-05-04 15:54 | 50.80791 | 3.98257 | 34844 ft | 438 kts | 203° |
| 2026-05-04 15:55 | 50.75114 | 3.94598 | 34949 ft | 442 kts | 202° |
| 2026-05-04 15:55 | 50.69426 | 3.90959 | 34966 ft | 439 kts | 202° |
| 2026-05-04 15:56 | 50.63784 | 3.87361 | 34970 ft | 436 kts | 202° |
| 2026-05-04 15:56 | 50.58163 | 3.83786 | 34972 ft | 435 kts | 202° |
| 2026-05-04 15:57 | 50.52587 | 3.80080 | 34978 ft | 435 kts | 204° |
| 2026-05-04 15:57 | 50.47041 | 3.76247 | 34979 ft | 436 kts | 204° |
| 2026-05-04 15:58 | 50.41510 | 3.72462 | 34978 ft | 437 kts | 204° |
| 2026-05-04 15:58 | 50.35920 | 3.68667 | 34986 ft | 438 kts | 203° |
| 2026-05-04 15:59 | 50.30305 | 3.64866 | 34982 ft | 441 kts | 203° |
| 2026-05-04 15:59 | 50.24661 | 3.61056 | 34977 ft | 442 kts | 203° |
| 2026-05-04 16:00 | 50.19003 | 3.57244 | 34975 ft | 444 kts | 203° |
| 2026-05-04 16:00 | 50.13336 | 3.53435 | 34966 ft | 444 kts | 203° |
| 2026-05-04 16:01 | 50.07660 | 3.49628 | 34973 ft | 444 kts | 203° |
| 2026-05-04 16:01 | 50.01983 | 3.45832 | 34972 ft | 444 kts | 203° |
| 2026-05-04 16:02 | 49.96311 | 3.42049 | 34976 ft | 444 kts | 203° |
| 2026-05-04 16:03 | 49.87810 | 3.36397 | 34974 ft | 443 kts | 203° |
| 2026-05-04 16:03 | 49.82142 | 3.32640 | 34977 ft | 443 kts | 203° |
| 2026-05-04 16:04 | 49.76474 | 3.28893 | 34971 ft | 443 kts | 202° |
| 2026-05-04 16:04 | 49.67980 | 3.23295 | 34966 ft | 442 kts | 202° |
| 2026-05-04 16:05 | 49.62318 | 3.19576 | 34970 ft | 442 kts | 202° |
| 2026-05-04 16:06 | 49.53825 | 3.14012 | 34966 ft | 442 kts | 202° |
| 2026-05-04 16:07 | 49.43056 | 3.05022 | 34968 ft | 444 kts | 213° |
| 2026-05-04 16:08 | 49.32762 | 2.94533 | 34960 ft | 444 kts | 212° |
| 2026-05-04 16:09 | 49.19856 | 2.81534 | 34957 ft | 444 kts | 212° |
| 2026-05-04 16:10 | 49.09537 | 2.71194 | 34965 ft | 443 kts | 212° |
| 2026-05-04 16:11 | 48.99226 | 2.60911 | 34980 ft | 443 kts | 212° |
| 2026-05-04 16:12 | 48.83688 | 2.45509 | 34981 ft | 447 kts | 211° |
| 2026-05-04 16:13 | 48.73228 | 2.35196 | 34962 ft | 446 kts | 211° |
| 2026-05-04 16:14 | 48.62899 | 2.25062 | 34969 ft | 442 kts | 211° |
| 2026-05-04 16:15 | 48.54713 | 2.18853 | 34960 ft | 440 kts | 199° |
| 2026-05-04 16:16 | 48.48798 | 2.16506 | 34957 ft | 440 kts | 192° |
| 2026-05-04 16:17 | 48.33723 | 2.11740 | 34940 ft | 446 kts | 192° |
| 2026-05-04 16:18 | 48.24391 | 2.10884 | 34929 ft | 452 kts | 178° |
| 2026-05-04 16:18 | 48.21261 | 2.11412 | 34938 ft | 452 kts | 173° |
| 2026-05-04 16:19 | 48.05695 | 2.13680 | 34959 ft | 447 kts | 179° |
| 2026-05-04 16:20 | 47.90176 | 2.14546 | 34963 ft | 446 kts | 179° |
| 2026-05-04 16:22 | 47.74660 | 2.15447 | 34938 ft | 447 kts | 180° |
| 2026-05-04 16:23 | 47.55958 | 2.16523 | 34936 ft | 450 kts | 180° |
| 2026-05-04 16:25 | 47.37222 | 2.17596 | 34932 ft | 446 kts | 180° |
| 2026-05-04 16:26 | 47.15697 | 2.18816 | 34928 ft | 442 kts | 180° |
| 2026-05-04 16:28 | 47.00694 | 2.23936 | 34945 ft | 450 kts | 161° |
| 2026-05-04 16:29 | 46.80554 | 2.36957 | 34935 ft | 459 kts | 150° |
| 2026-05-04 16:31 | 46.67226 | 2.49777 | 34929 ft | 459 kts | 152° |
| 2026-05-04 16:32 | 46.52097 | 2.64088 | 34933 ft | 458 kts | 152° |
| 2026-05-04 16:33 | 46.41404 | 2.74147 | 34941 ft | 458 kts | 152° |
| 2026-05-04 16:34 | 46.33372 | 2.81672 | 34911 ft | 459 kts | 152° |
| 2026-05-04 16:35 | 46.17226 | 2.96718 | 34939 ft | 462 kts | 152° |
| 2026-05-04 16:36 | 46.09097 | 3.04255 | 34937 ft | 463 kts | 152° |
| 2026-05-04 16:37 | 46.00967 | 3.11768 | 34948 ft | 463 kts | 152° |
| 2026-05-04 16:37 | 45.95384 | 3.16204 | 34920 ft | 453 kts | 165° |
| 2026-05-04 16:38 | 45.89290 | 3.18038 | 34931 ft | 445 kts | 181° |
| 2026-05-04 16:39 | 45.73860 | 3.17731 | 34934 ft | 444 kts | 184° |
| 2026-05-04 16:40 | 45.61491 | 3.17554 | 34942 ft | 444 kts | 184° |
| 2026-05-04 16:41 | 45.46106 | 3.17356 | 34941 ft | 442 kts | 184° |
| 2026-05-04 16:43 | 45.30731 | 3.17154 | 34950 ft | 443 kts | 185° |
| 2026-05-04 16:43 | 45.21494 | 3.17033 | 34963 ft | 443 kts | 185° |
| 2026-05-04 16:45 | 45.03029 | 3.16795 | 34965 ft | 441 kts | 185° |
| 2026-05-04 16:46 | 44.87744 | 3.16589 | 34966 ft | 440 kts | 185° |
| 2026-05-04 16:47 | 44.75452 | 3.16410 | 34968 ft | 440 kts | 185° |
| 2026-05-04 16:48 | 44.63230 | 3.16234 | 34966 ft | 441 kts | 185° |
| 2026-05-04 16:49 | 44.50929 | 3.16338 | 34961 ft | 443 kts | 184° |
| 2026-05-04 16:50 | 44.38608 | 3.16585 | 34966 ft | 443 kts | 184° |
| 2026-05-04 16:51 | 44.29370 | 3.16745 | 34965 ft | 442 kts | 184° |
| 2026-05-04 16:52 | 44.17066 | 3.16956 | 34943 ft | 442 kts | 184° |
| 2026-05-04 16:53 | 44.07864 | 3.17033 | 34959 ft | 438 kts | 187° |
| 2026-05-04 16:54 | 43.95763 | 3.15570 | 34947 ft | 437 kts | 189° |
| 2026-05-04 16:55 | 43.77622 | 3.13395 | 34935 ft | 436 kts | 189° |
| 2026-05-04 16:56 | 43.62527 | 3.11604 | 34947 ft | 436 kts | 189° |
| 2026-05-04 16:57 | 43.53448 | 3.10531 | 34949 ft | 438 kts | 189° |
| 2026-05-04 16:58 | 43.41261 | 3.09096 | 34938 ft | 440 kts | 189° |
| 2026-05-04 17:00 | 43.22947 | 3.06950 | 34935 ft | 441 kts | 189° |
| 2026-05-04 17:01 | 43.07663 | 3.05169 | 34955 ft | 441 kts | 189° |
| 2026-05-04 17:02 | 42.95455 | 3.03754 | 34910 ft | 439 kts | 190° |
| 2026-05-04 17:03 | 42.86393 | 3.02707 | 34930 ft | 437 kts | 190° |
| 2026-05-04 17:03 | 42.77322 | 3.01660 | 34936 ft | 435 kts | 190° |
| 2026-05-04 17:04 | 42.65241 | 3.00272 | 34944 ft | 436 kts | 190° |
| 2026-05-04 17:05 | 42.53123 | 2.98885 | 34924 ft | 438 kts | 190° |
| 2026-05-04 17:06 | 42.43951 | 2.98564 | 34918 ft | 445 kts | 182° |
| 2026-05-04 17:07 | 42.35734 | 2.99300 | 34882 ft | 444 kts | 182° |
| 2026-05-04 17:07 | 42.28536 | 2.99899 | 34899 ft | 443 kts | 183° |
| 2026-05-04 17:08 | 42.19309 | 3.00652 | 34912 ft | 442 kts | 183° |
| 2026-05-04 17:09 | 42.13175 | 3.01151 | 34913 ft | 441 kts | 183° |
| 2026-05-04 17:09 | 42.07055 | 3.01649 | 34908 ft | 440 kts | 183° |
| 2026-05-04 17:10 | 41.91847 | 3.02881 | 34906 ft | 436 kts | 183° |
| 2026-05-04 17:11 | 41.85798 | 3.03371 | 34913 ft | 435 kts | 183° |
| 2026-05-04 17:12 | 41.76746 | 3.04099 | 34916 ft | 434 kts | 183° |
| 2026-05-04 17:13 | 41.61709 | 3.05304 | 34909 ft | 434 kts | 183° |
| 2026-05-04 17:14 | 41.49631 | 3.06268 | 34906 ft | 437 kts | 183° |
| 2026-05-04 17:15 | 41.40511 | 3.06995 | 34926 ft | 439 kts | 183° |
| 2026-05-04 17:16 | 41.28294 | 3.07966 | 34908 ft | 440 kts | 183° |
| 2026-05-04 17:17 | 41.16081 | 3.08933 | 34919 ft | 439 kts | 183° |
| 2026-05-04 17:18 | 41.03895 | 3.09894 | 34907 ft | 438 kts | 184° |
| 2026-05-04 17:19 | 40.92762 | 3.10768 | 34922 ft | 437 kts | 184° |
| 2026-05-04 17:20 | 40.80618 | 3.11718 | 34921 ft | 437 kts | 184° |
| 2026-05-04 17:20 | 40.71507 | 3.12429 | 34926 ft | 437 kts | 184° |
| 2026-05-04 17:21 | 40.59356 | 3.13374 | 34926 ft | 437 kts | 184° |
| 2026-05-04 17:22 | 40.53277 | 3.13846 | 34927 ft | 438 kts | 184° |
| 2026-05-04 17:23 | 40.41241 | 3.13715 | 34907 ft | 433 kts | 188° |
| 2026-05-04 17:24 | 40.32217 | 3.13287 | 34927 ft | 433 kts | 188° |
| 2026-05-04 17:25 | 40.20165 | 3.12740 | 34891 ft | 433 kts | 188° |
| 2026-05-04 17:26 | 40.08110 | 3.12195 | 34925 ft | 434 kts | 188° |
| 2026-05-04 17:27 | 39.92982 | 3.11513 | 34926 ft | 436 kts | 188° |
| 2026-05-04 17:28 | 39.80742 | 3.11675 | 34933 ft | 441 kts | 185° |
| 2026-05-04 17:29 | 39.62291 | 3.12107 | 34946 ft | 443 kts | 186° |
| 2026-05-04 17:31 | 39.46857 | 3.12411 | 34949 ft | 444 kts | 185° |
| 2026-05-04 17:32 | 39.31389 | 3.12716 | 34943 ft | 445 kts | 185° |
| 2026-05-04 17:33 | 39.19004 | 3.12959 | 34962 ft | 446 kts | 185° |
| 2026-05-04 17:34 | 39.06621 | 3.13213 | 34937 ft | 447 kts | 185° |
| 2026-05-04 17:35 | 38.91027 | 3.13555 | 34958 ft | 450 kts | 185° |
| 2026-05-04 17:36 | 38.84763 | 3.13683 | 34937 ft | 450 kts | 185° |
| 2026-05-04 17:36 | 38.78500 | 3.13812 | 34956 ft | 450 kts | 185° |
| 2026-05-04 17:37 | 38.72227 | 3.13941 | 34969 ft | 451 kts | 185° |
| 2026-05-04 17:37 | 38.65954 | 3.14071 | 34970 ft | 451 kts | 185° |
| 2026-05-04 17:38 | 38.59672 | 3.14200 | 34955 ft | 451 kts | 185° |
| 2026-05-04 17:38 | 38.53395 | 3.14326 | 34967 ft | 451 kts | 185° |
| 2026-05-04 17:39 | 38.43985 | 3.14512 | 34973 ft | 451 kts | 185° |
| 2026-05-04 17:39 | 38.37705 | 3.14636 | 34975 ft | 451 kts | 185° |
| 2026-05-04 17:40 | 38.31429 | 3.14824 | 34976 ft | 454 kts | 182° |
| 2026-05-04 17:40 | 38.25139 | 3.16121 | 34977 ft | 463 kts | 172° |
| 2026-05-04 17:41 | 38.18918 | 3.18286 | 34978 ft | 463 kts | 172° |
| 2026-05-04 17:41 | 38.12727 | 3.20361 | 34962 ft | 462 kts | 173° |
| 2026-05-04 17:42 | 38.06471 | 3.22191 | 34976 ft | 461 kts | 174° |
| 2026-05-04 17:42 | 38.00203 | 3.23887 | 34985 ft | 461 kts | 174° |
| 2026-05-04 17:43 | 37.93919 | 3.25606 | 34990 ft | 462 kts | 174° |
| 2026-05-04 17:43 | 37.87632 | 3.27353 | 34971 ft | 463 kts | 174° |
| 2026-05-04 17:44 | 37.81331 | 3.29111 | 34994 ft | 464 kts | 174° |
| 2026-05-04 17:44 | 37.75016 | 3.30871 | 34990 ft | 465 kts | 174° |
| 2026-05-04 17:45 | 37.68683 | 3.32632 | 34990 ft | 466 kts | 174° |
| 2026-05-04 17:45 | 37.62346 | 3.34391 | 34985 ft | 466 kts | 174° |
| 2026-05-04 17:46 | 37.55999 | 3.36148 | 34994 ft | 467 kts | 174° |
| 2026-05-04 17:46 | 37.49646 | 3.37905 | 34996 ft | 468 kts | 174° |
| 2026-05-04 17:47 | 37.43292 | 3.39658 | 34998 ft | 468 kts | 174° |
| 2026-05-04 17:47 | 37.36928 | 3.41412 | 34990 ft | 468 kts | 175° |
| 2026-05-04 17:48 | 37.30562 | 3.43163 | 34994 ft | 469 kts | 175° |
| 2026-05-04 17:48 | 37.24188 | 3.44912 | 34997 ft | 469 kts | 175° |
| 2026-05-04 17:49 | 37.17809 | 3.46661 | 34975 ft | 469 kts | 175° |
| 2026-05-04 17:49 | 37.11426 | 3.48407 | 34992 ft | 470 kts | 175° |
| 2026-05-04 17:50 | 37.05034 | 3.50153 | 35006 ft | 471 kts | 175° |
| 2026-05-04 17:50 | 36.98632 | 3.51898 | 35008 ft | 471 kts | 175° |
| 2026-05-04 17:51 | 36.92262 | 3.53633 | 34980 ft | 472 kts | 175° |
| 2026-05-04 17:51 | 36.85827 | 3.55382 | 35008 ft | 474 kts | 175° |
| 2026-05-04 17:52 | 36.79361 | 3.57119 | 35013 ft | 475 kts | 177° |
| 2026-05-04 17:52 | 36.72836 | 3.58321 | 35214 ft | 475 kts | 180° |
| 2026-05-04 17:53 | 36.69572 | 3.58869 | 35548 ft | 472 kts | 180° |
| 2026-05-04 17:53 | 36.66320 | 3.59416 | 35793 ft | 471 kts | 180° |
| 2026-05-04 17:53 | 36.63065 | 3.59967 | 35921 ft | 473 kts | 180° |
| 2026-05-04 17:53 | 36.59792 | 3.60525 | 35971 ft | 475 kts | 180° |
| 2026-05-04 17:54 | 36.53259 | 3.61654 | 35979 ft | 472 kts | 180° |
| 2026-05-04 17:54 | 36.46773 | 3.62781 | 35988 ft | 470 kts | 180° |
| 2026-05-04 17:55 | 36.40315 | 3.63899 | 35979 ft | 468 kts | 180° |
| 2026-05-04 17:55 | 36.33857 | 3.65010 | 35987 ft | 469 kts | 180° |
| 2026-05-04 17:56 | 36.27372 | 3.66123 | 35985 ft | 471 kts | 180° |
| 2026-05-04 17:56 | 36.20859 | 3.67241 | 35988 ft | 474 kts | 180° |
| 2026-05-04 17:57 | 36.14313 | 3.68365 | 35976 ft | 475 kts | 180° |
| 2026-05-04 17:57 | 36.07751 | 3.69490 | 35974 ft | 477 kts | 180° |
| 2026-05-04 17:58 | 36.01183 | 3.70615 | 35992 ft | 476 kts | 180° |
| 2026-05-04 17:58 | 35.94649 | 3.71731 | 35977 ft | 478 kts | 180° |
| 2026-05-04 17:59 | 35.88054 | 3.72855 | 35968 ft | 478 kts | 180° |
| 2026-05-04 18:00 | 35.78167 | 3.74537 | 35962 ft | 478 kts | 180° |
| 2026-05-04 18:00 | 35.71580 | 3.75656 | 35965 ft | 477 kts | 180° |
| 2026-05-04 18:01 | 35.65007 | 3.76769 | 35950 ft | 477 kts | 179° |
| 2026-05-04 18:01 | 35.58436 | 3.77882 | 35955 ft | 477 kts | 179° |
| 2026-05-04 18:02 | 35.48562 | 3.79551 | 35939 ft | 478 kts | 179° |
| 2026-05-04 18:02 | 35.41971 | 3.80664 | 35934 ft | 478 kts | 179° |
| 2026-05-04 18:03 | 35.35373 | 3.81776 | 35955 ft | 479 kts | 179° |
| 2026-05-04 18:03 | 35.28766 | 3.82887 | 35978 ft | 480 kts | 179° |
| 2026-05-04 18:04 | 35.22143 | 3.83999 | 35974 ft | 481 kts | 179° |
| 2026-05-04 18:05 | 35.12194 | 3.85667 | 35961 ft | 481 kts | 179° |
| 2026-05-04 18:05 | 35.05561 | 3.86778 | 35972 ft | 481 kts | 179° |
| 2026-05-04 18:06 | 34.96687 | 3.88260 | 35979 ft | 481 kts | 179° |
| 2026-05-04 18:06 | 34.90096 | 3.89358 | 35962 ft | 481 kts | 179° |
| 2026-05-04 18:07 | 34.83457 | 3.90462 | 35981 ft | 482 kts | 179° |
| 2026-05-04 18:07 | 34.76815 | 3.91565 | 35987 ft | 482 kts | 179° |
| 2026-05-04 18:08 | 34.70164 | 3.92669 | 35995 ft | 483 kts | 179° |
| 2026-05-04 18:08 | 34.63508 | 3.93770 | 35975 ft | 483 kts | 178° |
| 2026-05-04 18:09 | 34.50168 | 3.95973 | 35986 ft | 484 kts | 179° |
| 2026-05-04 18:10 | 34.43490 | 3.97073 | 35988 ft | 485 kts | 178° |
| 2026-05-04 18:10 | 34.36802 | 3.98174 | 35988 ft | 485 kts | 178° |
| 2026-05-04 18:11 | 34.30115 | 3.99273 | 35977 ft | 486 kts | 178° |
| 2026-05-04 18:11 | 34.23416 | 4.00372 | 35973 ft | 486 kts | 178° |
| 2026-05-04 18:12 | 34.16712 | 4.01470 | 35973 ft | 486 kts | 178° |
| 2026-05-04 18:12 | 34.10016 | 4.02302 | 35966 ft | 480 kts | 185° |
| 2026-05-04 18:13 | 34.03430 | 4.01765 | 35968 ft | 471 kts | 193° |
| 2026-05-04 18:14 | 33.93709 | 4.00240 | 35965 ft | 472 kts | 193° |
| 2026-05-04 18:14 | 33.87195 | 3.99258 | 35945 ft | 472 kts | 193° |
| 2026-05-04 18:15 | 33.74153 | 3.97339 | 35970 ft | 472 kts | 193° |
| 2026-05-04 18:16 | 33.67628 | 3.96382 | 35965 ft | 472 kts | 193° |
| 2026-05-04 18:16 | 33.61095 | 3.95425 | 35944 ft | 473 kts | 193° |
| 2026-05-04 18:17 | 33.51305 | 3.93992 | 35968 ft | 473 kts | 193° |
| 2026-05-04 18:18 | 33.41504 | 3.92561 | 35968 ft | 473 kts | 193° |
| 2026-05-04 18:18 | 33.34962 | 3.91608 | 35966 ft | 474 kts | 193° |
| 2026-05-04 18:19 | 33.25144 | 3.90180 | 35967 ft | 474 kts | 193° |
| 2026-05-04 18:19 | 33.18601 | 3.89231 | 35964 ft | 474 kts | 193° |
| 2026-05-04 18:20 | 33.12058 | 3.88282 | 35963 ft | 474 kts | 193° |
| 2026-05-04 18:20 | 33.05517 | 3.87335 | 35958 ft | 473 kts | 193° |
| 2026-05-04 18:21 | 32.98985 | 3.86391 | 35962 ft | 473 kts | 193° |
| 2026-05-04 18:21 | 32.92442 | 3.85443 | 35961 ft | 473 kts | 193° |
| 2026-05-04 18:22 | 32.85902 | 3.84497 | 35960 ft | 474 kts | 193° |
| 2026-05-04 18:22 | 32.79357 | 3.83553 | 35952 ft | 473 kts | 193° |
| 2026-05-04 18:23 | 32.72816 | 3.82610 | 35957 ft | 474 kts | 193° |
| 2026-05-04 18:23 | 32.66271 | 3.81667 | 35974 ft | 474 kts | 193° |
| 2026-05-04 18:24 | 32.59719 | 3.80726 | 35995 ft | 474 kts | 193° |
| 2026-05-04 18:24 | 32.53161 | 3.79785 | 35989 ft | 474 kts | 193° |
| 2026-05-04 18:25 | 32.46601 | 3.78845 | 36016 ft | 474 kts | 193° |
| 2026-05-04 18:25 | 32.40013 | 3.78144 | 36017 ft | 480 kts | 186° |
| 2026-05-04 18:26 | 32.33339 | 3.78777 | 35947 ft | 489 kts | 177° |
| 2026-05-04 18:26 | 32.26621 | 3.80071 | 35942 ft | 489 kts | 177° |
| 2026-05-04 18:27 | 32.19899 | 3.81365 | 35938 ft | 489 kts | 177° |
| 2026-05-04 18:27 | 32.13173 | 3.82623 | 35941 ft | 489 kts | 177° |
| 2026-05-04 18:28 | 32.06444 | 3.83860 | 35940 ft | 489 kts | 177° |
| 2026-05-04 18:28 | 31.99711 | 3.85093 | 35920 ft | 489 kts | 177° |
| 2026-05-04 18:29 | 31.92984 | 3.86325 | 35938 ft | 489 kts | 177° |
| 2026-05-04 18:29 | 31.86256 | 3.87557 | 35936 ft | 490 kts | 177° |
| 2026-05-04 18:30 | 31.76155 | 3.89401 | 35931 ft | 490 kts | 177° |
| 2026-05-04 18:31 | 31.69425 | 3.90629 | 35917 ft | 490 kts | 178° |
| 2026-05-04 18:31 | 31.62689 | 3.91855 | 35935 ft | 490 kts | 178° |
| 2026-05-04 18:32 | 31.55952 | 3.93079 | 35928 ft | 490 kts | 178° |
| 2026-05-04 18:32 | 31.49208 | 3.94304 | 35929 ft | 490 kts | 178° |
| 2026-05-04 18:33 | 31.42461 | 3.95527 | 35911 ft | 491 kts | 178° |
| 2026-05-04 18:33 | 31.35709 | 3.96749 | 35927 ft | 491 kts | 178° |
| 2026-05-04 18:34 | 31.28954 | 3.97970 | 35926 ft | 491 kts | 178° |
| 2026-05-04 18:34 | 31.22195 | 3.99190 | 35924 ft | 492 kts | 178° |
| 2026-05-04 18:35 | 31.15479 | 4.00401 | 35910 ft | 492 kts | 178° |
| 2026-05-04 18:35 | 31.08720 | 4.01618 | 35922 ft | 492 kts | 178° |
| 2026-05-04 18:36 | 31.01958 | 4.02833 | 35913 ft | 492 kts | 178° |
| 2026-05-04 18:36 | 30.95196 | 4.04046 | 35910 ft | 492 kts | 178° |
| 2026-05-04 18:37 | 30.88428 | 4.05259 | 35893 ft | 492 kts | 178° |
| 2026-05-04 18:37 | 30.81668 | 4.06469 | 35909 ft | 492 kts | 178° |
| 2026-05-04 18:38 | 30.74907 | 4.07677 | 35910 ft | 492 kts | 178° |
| 2026-05-04 18:38 | 30.68134 | 4.08885 | 35911 ft | 492 kts | 178° |
| 2026-05-04 18:39 | 30.61368 | 4.10091 | 35909 ft | 492 kts | 178° |
| 2026-05-04 18:39 | 30.54594 | 4.11296 | 35907 ft | 492 kts | 178° |
| 2026-05-04 18:40 | 30.47820 | 4.12500 | 35907 ft | 492 kts | 178° |
| 2026-05-04 18:40 | 30.41050 | 4.13701 | 35899 ft | 492 kts | 178° |
| 2026-05-04 18:41 | 30.34273 | 4.14902 | 35902 ft | 493 kts | 178° |
| 2026-05-04 18:41 | 30.27495 | 4.16102 | 35890 ft | 493 kts | 178° |
| 2026-05-04 18:42 | 30.20721 | 4.17298 | 35900 ft | 493 kts | 178° |
| 2026-05-04 18:42 | 30.13933 | 4.18496 | 35897 ft | 493 kts | 178° |
| 2026-05-04 18:43 | 30.07150 | 4.19691 | 35892 ft | 493 kts | 178° |
| 2026-05-04 18:43 | 30.00364 | 4.20886 | 35889 ft | 493 kts | 179° |
| 2026-05-04 18:44 | 29.93587 | 4.22076 | 35898 ft | 493 kts | 179° |
| 2026-05-04 18:44 | 29.86798 | 4.23267 | 35893 ft | 493 kts | 179° |
| 2026-05-04 18:45 | 29.80058 | 4.24449 | 35893 ft | 493 kts | 179° |
| 2026-05-04 18:45 | 29.73225 | 4.25645 | 35874 ft | 493 kts | 179° |
| 2026-05-04 18:46 | 29.66486 | 4.26832 | 35892 ft | 494 kts | 179° |
| 2026-05-04 18:46 | 29.59692 | 4.28046 | 35891 ft | 494 kts | 179° |
| 2026-05-04 18:47 | 29.52890 | 4.29262 | 35893 ft | 495 kts | 179° |
| 2026-05-04 18:47 | 29.46081 | 4.30475 | 35864 ft | 495 kts | 179° |
| 2026-05-04 18:48 | 29.39275 | 4.31685 | 35888 ft | 495 kts | 179° |
| 2026-05-04 18:48 | 29.32461 | 4.32893 | 35899 ft | 495 kts | 179° |
| 2026-05-04 18:49 | 29.25647 | 4.34102 | 35891 ft | 495 kts | 179° |
| 2026-05-04 18:49 | 29.18838 | 4.35306 | 35890 ft | 495 kts | 179° |
| 2026-05-04 18:50 | 29.12032 | 4.36509 | 35900 ft | 495 kts | 179° |
| 2026-05-04 18:50 | 29.05224 | 4.37707 | 35878 ft | 494 kts | 179° |
| 2026-05-04 18:51 | 28.98417 | 4.38909 | 35881 ft | 495 kts | 179° |
| 2026-05-04 18:51 | 28.92757 | 4.39908 | 35897 ft | 496 kts | 179° |
| 2026-05-04 18:52 | 28.85925 | 4.41108 | 35873 ft | 496 kts | 179° |
| 2026-05-04 18:52 | 28.79098 | 4.42307 | 35880 ft | 497 kts | 179° |
| 2026-05-04 18:53 | 28.72260 | 4.43506 | 35888 ft | 497 kts | 179° |
| 2026-05-04 18:53 | 28.65417 | 4.44704 | 35887 ft | 498 kts | 179° |
| 2026-05-04 18:54 | 28.58561 | 4.45904 | 35860 ft | 498 kts | 179° |
| 2026-05-04 18:54 | 28.51712 | 4.47101 | 35880 ft | 498 kts | 179° |
| 2026-05-04 18:55 | 28.44863 | 4.48310 | 35876 ft | 498 kts | 179° |
| 2026-05-04 18:55 | 28.34596 | 4.50157 | 35881 ft | 498 kts | 179° |
| 2026-05-04 18:56 | 28.27749 | 4.51387 | 35849 ft | 498 kts | 179° |
| 2026-05-04 18:56 | 28.20917 | 4.52611 | 35870 ft | 497 kts | 179° |
| 2026-05-04 18:57 | 28.14083 | 4.53831 | 35862 ft | 497 kts | 179° |
| 2026-05-04 18:57 | 28.07252 | 4.55049 | 35873 ft | 497 kts | 179° |
| 2026-05-04 18:58 | 28.00416 | 4.56266 | 35877 ft | 497 kts | 179° |
| 2026-05-04 18:58 | 27.93625 | 4.57475 | 35871 ft | 497 kts | 179° |
| 2026-05-04 18:59 | 27.86776 | 4.58690 | 35868 ft | 498 kts | 179° |
| 2026-05-04 18:59 | 27.79920 | 4.59907 | 35870 ft | 499 kts | 179° |
| 2026-05-04 19:00 | 27.73055 | 4.61123 | 35866 ft | 500 kts | 179° |
| 2026-05-04 19:00 | 27.66180 | 4.62341 | 35870 ft | 500 kts | 179° |
| 2026-05-04 19:01 | 27.59303 | 4.63557 | 35862 ft | 500 kts | 179° |
| 2026-05-04 19:01 | 27.52415 | 4.64773 | 35863 ft | 500 kts | 179° |
| 2026-05-04 19:02 | 27.45539 | 4.65986 | 35857 ft | 500 kts | 179° |
| 2026-05-04 19:02 | 27.38666 | 4.67196 | 35836 ft | 500 kts | 179° |
| 2026-05-04 19:03 | 27.31791 | 4.68406 | 35852 ft | 500 kts | 179° |
| 2026-05-04 19:03 | 27.24913 | 4.69613 | 35850 ft | 500 kts | 179° |
| 2026-05-04 19:04 | 27.18034 | 4.70820 | 35853 ft | 500 kts | 179° |
| 2026-05-04 19:04 | 27.11152 | 4.72026 | 35851 ft | 501 kts | 179° |
| 2026-05-04 19:05 | 27.04264 | 4.73231 | 35845 ft | 501 kts | 179° |
| 2026-05-04 19:05 | 26.97375 | 4.74435 | 35847 ft | 501 kts | 179° |
| 2026-05-04 19:06 | 26.90480 | 4.75639 | 35840 ft | 502 kts | 179° |
| 2026-05-04 19:06 | 26.83581 | 4.76842 | 35845 ft | 502 kts | 179° |
| 2026-05-04 19:07 | 26.76674 | 4.78045 | 35820 ft | 503 kts | 179° |
| 2026-05-04 19:07 | 26.69759 | 4.79248 | 35837 ft | 503 kts | 179° |
| 2026-05-04 19:08 | 26.62842 | 4.80450 | 35838 ft | 503 kts | 179° |
| 2026-05-04 19:08 | 26.55920 | 4.81650 | 35851 ft | 504 kts | 179° |
| 2026-05-04 19:09 | 26.48983 | 4.82851 | 35830 ft | 505 kts | 179° |
| 2026-05-04 19:09 | 26.42041 | 4.84053 | 35836 ft | 505 kts | 179° |
| 2026-05-04 19:10 | 26.35095 | 4.85255 | 35846 ft | 505 kts | 179° |
| 2026-05-04 19:10 | 26.28198 | 4.86446 | 35847 ft | 505 kts | 179° |
| 2026-05-04 19:11 | 26.21245 | 4.87645 | 35848 ft | 505 kts | 179° |
| 2026-05-04 19:11 | 26.14297 | 4.88843 | 35831 ft | 504 kts | 179° |
| 2026-05-04 19:12 | 26.03903 | 4.90628 | 35852 ft | 504 kts | 179° |
| 2026-05-04 19:13 | 25.96962 | 4.91820 | 35849 ft | 505 kts | 179° |
| 2026-05-04 19:13 | 25.90014 | 4.93012 | 35854 ft | 505 kts | 179° |
| 2026-05-04 19:14 | 25.83061 | 4.94203 | 35840 ft | 506 kts | 179° |
| 2026-05-04 19:14 | 25.76101 | 4.95394 | 35860 ft | 506 kts | 178° |
| 2026-05-04 19:15 | 25.69136 | 4.96585 | 35856 ft | 507 kts | 178° |
| 2026-05-04 19:15 | 25.62165 | 4.97775 | 35847 ft | 507 kts | 178° |
| 2026-05-04 19:16 | 25.55184 | 4.98965 | 35828 ft | 508 kts | 178° |
| 2026-05-04 19:16 | 25.48205 | 5.00154 | 35850 ft | 508 kts | 178° |
| 2026-05-04 19:17 | 25.41215 | 5.01343 | 35845 ft | 508 kts | 178° |
| 2026-05-04 19:17 | 25.34233 | 5.02530 | 35852 ft | 508 kts | 178° |
| 2026-05-04 19:18 | 25.27296 | 5.03707 | 35843 ft | 508 kts | 178° |
| 2026-05-04 19:18 | 25.20306 | 5.04891 | 35835 ft | 508 kts | 178° |
| 2026-05-04 19:19 | 25.13327 | 5.06074 | 35840 ft | 508 kts | 178° |
| 2026-05-04 19:19 | 25.06343 | 5.07255 | 35845 ft | 507 kts | 178° |
| 2026-05-04 19:20 | 24.99369 | 5.08433 | 35863 ft | 507 kts | 178° |
| 2026-05-04 19:20 | 24.92386 | 5.09610 | 35850 ft | 507 kts | 178° |
| 2026-05-04 19:21 | 24.85415 | 5.10786 | 35855 ft | 507 kts | 178° |
| 2026-05-04 19:21 | 24.78444 | 5.11960 | 35864 ft | 506 kts | 178° |
| 2026-05-04 19:22 | 24.71476 | 5.13131 | 35859 ft | 507 kts | 178° |
| 2026-05-04 19:22 | 24.64506 | 5.14301 | 35868 ft | 507 kts | 178° |
| 2026-05-04 19:23 | 24.57533 | 5.15471 | 35864 ft | 507 kts | 178° |
| 2026-05-04 19:23 | 24.50556 | 5.16641 | 35868 ft | 507 kts | 178° |
| 2026-05-04 19:24 | 24.43589 | 5.17807 | 35879 ft | 506 kts | 178° |
| 2026-05-04 19:24 | 24.36619 | 5.18972 | 35893 ft | 507 kts | 178° |
| 2026-05-04 19:25 | 24.29642 | 5.20137 | 35864 ft | 507 kts | 178° |
| 2026-05-04 19:25 | 24.22671 | 5.21300 | 35883 ft | 507 kts | 178° |
| 2026-05-04 19:26 | 24.15696 | 5.22463 | 35886 ft | 507 kts | 178° |
| 2026-05-04 19:26 | 24.08767 | 5.23617 | 35884 ft | 507 kts | 178° |
| 2026-05-04 19:27 | 24.01749 | 5.24784 | 35884 ft | 507 kts | 178° |
| 2026-05-04 19:27 | 23.94825 | 5.25934 | 35862 ft | 506 kts | 178° |
| 2026-05-04 19:28 | 23.87861 | 5.27089 | 35875 ft | 506 kts | 178° |
| 2026-05-04 19:28 | 23.80907 | 5.28242 | 35885 ft | 506 kts | 178° |
| 2026-05-04 19:29 | 23.73947 | 5.29394 | 35872 ft | 505 kts | 178° |
| 2026-05-04 19:29 | 23.66996 | 5.30544 | 35875 ft | 505 kts | 178° |
| 2026-05-04 19:30 | 23.60044 | 5.31692 | 35880 ft | 505 kts | 177° |
| 2026-05-04 19:30 | 23.53099 | 5.32839 | 35875 ft | 505 kts | 177° |
| 2026-05-04 19:31 | 23.46156 | 5.33984 | 35918 ft | 504 kts | 178° |
| 2026-05-04 19:31 | 23.39215 | 5.35126 | 35921 ft | 505 kts | 178° |
| 2026-05-04 19:32 | 23.32273 | 5.36268 | 35900 ft | 504 kts | 177° |
| 2026-05-04 19:32 | 23.25345 | 5.37407 | 35921 ft | 503 kts | 177° |
| 2026-05-04 19:33 | 23.18431 | 5.38543 | 35928 ft | 502 kts | 177° |
| 2026-05-04 19:33 | 23.11524 | 5.39675 | 35965 ft | 502 kts | 177° |
| 2026-05-04 19:34 | 23.04622 | 5.40805 | 36017 ft | 502 kts | 177° |
| 2026-05-04 19:34 | 22.97717 | 5.41935 | 36057 ft | 501 kts | 177° |
| 2026-05-04 19:35 | 22.90875 | 5.43054 | 36116 ft | 500 kts | 177° |
| 2026-05-04 19:35 | 22.83996 | 5.44186 | 36136 ft | 501 kts | 176° |
| 2026-05-04 19:36 | 22.77205 | 5.46138 | 36138 ft | 512 kts | 164° |
| 2026-05-04 19:36 | 22.73886 | 5.47587 | 36311 ft | 515 kts | 163° |
| 2026-05-04 19:36 | 22.70581 | 5.49066 | 36626 ft | 513 kts | 163° |
| 2026-05-04 19:36 | 22.67296 | 5.50540 | 36970 ft | 510 kts | 163° |
| 2026-05-04 19:37 | 22.64017 | 5.52002 | 37061 ft | 511 kts | 163° |
| 2026-05-04 19:37 | 22.57435 | 5.54899 | 36964 ft | 508 kts | 163° |
| 2026-05-04 19:38 | 22.50911 | 5.57743 | 36897 ft | 504 kts | 164° |
| 2026-05-04 19:38 | 22.45511 | 5.60089 | 36853 ft | 502 kts | 164° |
| 2026-05-04 19:39 | 22.38992 | 5.62918 | 36855 ft | 501 kts | 164° |
| 2026-05-04 19:39 | 22.32558 | 5.65709 | 36832 ft | 502 kts | 164° |
| 2026-05-04 19:40 | 22.26069 | 5.68523 | 36847 ft | 503 kts | 164° |
| 2026-05-04 19:40 | 22.19571 | 5.71338 | 36844 ft | 504 kts | 164° |
| 2026-05-04 19:41 | 22.13059 | 5.74157 | 36837 ft | 505 kts | 164° |
| 2026-05-04 19:41 | 22.06521 | 5.76984 | 36826 ft | 507 kts | 164° |
| 2026-05-04 19:42 | 21.99971 | 5.79814 | 36814 ft | 507 kts | 164° |
| 2026-05-04 19:42 | 21.93413 | 5.82645 | 36811 ft | 508 kts | 164° |
| 2026-05-04 19:43 | 21.86852 | 5.85474 | 36817 ft | 508 kts | 164° |
| 2026-05-04 19:43 | 21.80284 | 5.88304 | 36806 ft | 508 kts | 164° |
| 2026-05-04 19:44 | 21.73720 | 5.91129 | 36807 ft | 508 kts | 164° |
| 2026-05-04 19:44 | 21.67154 | 5.93952 | 36784 ft | 508 kts | 164° |
| 2026-05-04 19:45 | 21.60619 | 5.96758 | 36801 ft | 507 kts | 164° |
| 2026-05-04 19:45 | 21.54075 | 5.99566 | 36803 ft | 506 kts | 164° |
| 2026-05-04 19:46 | 21.47538 | 6.02368 | 36807 ft | 506 kts | 164° |
| 2026-05-04 19:46 | 21.41001 | 6.05167 | 36797 ft | 505 kts | 164° |
| 2026-05-04 19:47 | 21.34473 | 6.07960 | 36800 ft | 505 kts | 164° |
| 2026-05-04 19:47 | 21.27937 | 6.10753 | 36801 ft | 505 kts | 164° |
| 2026-05-04 19:48 | 21.21404 | 6.13542 | 36796 ft | 506 kts | 164° |
| 2026-05-04 19:48 | 21.14871 | 6.16329 | 36797 ft | 505 kts | 164° |
| 2026-05-04 19:49 | 21.08331 | 6.19116 | 36796 ft | 506 kts | 164° |
| 2026-05-04 19:49 | 21.01800 | 6.21897 | 36784 ft | 506 kts | 164° |
| 2026-05-04 19:50 | 20.95299 | 6.24662 | 36793 ft | 505 kts | 164° |
| 2026-05-04 19:50 | 20.88760 | 6.27441 | 36787 ft | 505 kts | 164° |
| 2026-05-04 19:51 | 20.82226 | 6.30216 | 36790 ft | 505 kts | 164° |
| 2026-05-04 19:51 | 20.75699 | 6.32984 | 36788 ft | 505 kts | 164° |
| 2026-05-04 19:52 | 20.69172 | 6.35750 | 36787 ft | 504 kts | 164° |
| 2026-05-04 19:52 | 20.62653 | 6.38510 | 36781 ft | 504 kts | 164° |
| 2026-05-04 19:53 | 20.56124 | 6.41272 | 36784 ft | 504 kts | 164° |
| 2026-05-04 19:53 | 20.49652 | 6.44008 | 36784 ft | 504 kts | 164° |
| 2026-05-04 19:54 | 20.43093 | 6.46776 | 36786 ft | 503 kts | 164° |
| 2026-05-04 19:54 | 20.36624 | 6.49506 | 36781 ft | 504 kts | 164° |
| 2026-05-04 19:55 | 20.30106 | 6.52253 | 36769 ft | 503 kts | 164° |
| 2026-05-04 19:55 | 20.23596 | 6.54995 | 36779 ft | 503 kts | 164° |
| 2026-05-04 19:56 | 20.17078 | 6.57734 | 36773 ft | 501 kts | 166° |
| 2026-05-04 19:56 | 20.13755 | 6.58686 | 36769 ft | 489 kts | 179° |
| 2026-05-04 19:56 | 20.10402 | 6.58800 | 36787 ft | 477 kts | 191° |
| 2026-05-04 19:57 | 20.04142 | 6.57115 | 36786 ft | 459 kts | 208° |
| 2026-05-04 19:57 | 19.98165 | 6.54612 | 36769 ft | 463 kts | 207° |
| 2026-05-04 19:58 | 19.92140 | 6.52147 | 36774 ft | 465 kts | 207° |
| 2026-05-04 19:58 | 19.86070 | 6.49704 | 36773 ft | 467 kts | 207° |
| 2026-05-04 19:59 | 19.79976 | 6.47265 | 36773 ft | 468 kts | 207° |
| 2026-05-04 19:59 | 19.73883 | 6.44829 | 36770 ft | 468 kts | 207° |
| 2026-05-04 20:00 | 19.67787 | 6.42392 | 36755 ft | 467 kts | 207° |
| 2026-05-04 20:00 | 19.61710 | 6.39964 | 36770 ft | 466 kts | 207° |
| 2026-05-04 20:01 | 19.55646 | 6.37542 | 36771 ft | 465 kts | 207° |
| 2026-05-04 20:01 | 19.49589 | 6.35125 | 36772 ft | 465 kts | 207° |
| 2026-05-04 20:02 | 19.43541 | 6.32713 | 36769 ft | 464 kts | 207° |
| 2026-05-04 20:02 | 19.37543 | 6.30323 | 36770 ft | 464 kts | 207° |
| 2026-05-04 20:03 | 19.31487 | 6.27912 | 36767 ft | 464 kts | 207° |
| 2026-05-04 20:03 | 19.25452 | 6.25511 | 36766 ft | 464 kts | 207° |
| 2026-05-04 20:04 | 19.19387 | 6.23100 | 36769 ft | 465 kts | 207° |
| 2026-05-04 20:04 | 19.13336 | 6.20697 | 36771 ft | 465 kts | 207° |
| 2026-05-04 20:05 | 19.07270 | 6.18289 | 36766 ft | 466 kts | 207° |
| 2026-05-04 20:05 | 19.01216 | 6.15889 | 36758 ft | 466 kts | 207° |
| 2026-05-04 20:06 | 18.95096 | 6.13464 | 36764 ft | 467 kts | 207° |
| 2026-05-04 20:06 | 18.89055 | 6.11073 | 36766 ft | 467 kts | 207° |
| 2026-05-04 20:07 | 18.82967 | 6.08664 | 36758 ft | 467 kts | 207° |
| 2026-05-04 20:07 | 18.76873 | 6.06254 | 36771 ft | 468 kts | 206° |
| 2026-05-04 20:08 | 18.70776 | 6.03847 | 36754 ft | 468 kts | 206° |
| 2026-05-04 20:08 | 18.64673 | 6.01438 | 36760 ft | 468 kts | 206° |
| 2026-05-04 20:09 | 18.58570 | 5.99031 | 36758 ft | 469 kts | 206° |
| 2026-05-04 20:09 | 18.52464 | 5.96624 | 36767 ft | 469 kts | 206° |
| 2026-05-04 20:10 | 18.46359 | 5.94221 | 36762 ft | 469 kts | 206° |
| 2026-05-04 20:10 | 18.40231 | 5.91809 | 36761 ft | 469 kts | 206° |
| 2026-05-04 20:11 | 18.34115 | 5.89404 | 36764 ft | 469 kts | 206° |
| 2026-05-04 20:11 | 18.27991 | 5.86998 | 36758 ft | 469 kts | 206° |
| 2026-05-04 20:12 | 18.21877 | 5.84598 | 36765 ft | 469 kts | 206° |
| 2026-05-04 20:12 | 18.15795 | 5.82211 | 36763 ft | 470 kts | 206° |
| 2026-05-04 20:13 | 18.09627 | 5.79793 | 36763 ft | 470 kts | 206° |
| 2026-05-04 20:13 | 18.03498 | 5.77393 | 36761 ft | 470 kts | 206° |
| 2026-05-04 20:14 | 17.97364 | 5.74991 | 36761 ft | 470 kts | 206° |
| 2026-05-04 20:14 | 17.91274 | 5.72608 | 36755 ft | 470 kts | 206° |
| 2026-05-04 20:15 | 17.85136 | 5.70209 | 36759 ft | 470 kts | 206° |
| 2026-05-04 20:15 | 17.79284 | 5.67301 | 36760 ft | 461 kts | 217° |
| 2026-05-04 20:16 | 17.73832 | 5.63811 | 36765 ft | 461 kts | 217° |
| 2026-05-04 20:16 | 17.68323 | 5.60293 | 36762 ft | 462 kts | 217° |
| 2026-05-04 20:17 | 17.62818 | 5.56808 | 36756 ft | 462 kts | 216° |
| 2026-05-04 20:17 | 17.57304 | 5.53332 | 36762 ft | 463 kts | 216° |
| 2026-05-04 20:18 | 17.51781 | 5.49855 | 36765 ft | 463 kts | 216° |
| 2026-05-04 20:18 | 17.46235 | 5.46366 | 36765 ft | 464 kts | 216° |
| 2026-05-04 20:19 | 17.40696 | 5.42883 | 36761 ft | 464 kts | 216° |
| 2026-05-04 20:19 | 17.35153 | 5.39400 | 36761 ft | 464 kts | 216° |
| 2026-05-04 20:20 | 17.29651 | 5.35945 | 36747 ft | 465 kts | 216° |
| 2026-05-04 20:20 | 17.24092 | 5.32457 | 36757 ft | 466 kts | 216° |
| 2026-05-04 20:21 | 17.18528 | 5.28968 | 36763 ft | 467 kts | 216° |
| 2026-05-04 20:21 | 17.10159 | 5.23724 | 36762 ft | 468 kts | 216° |
| 2026-05-04 20:22 | 17.04565 | 5.20224 | 36759 ft | 469 kts | 216° |
| 2026-05-04 20:22 | 16.98967 | 5.16722 | 36762 ft | 469 kts | 216° |
| 2026-05-04 20:23 | 16.94310 | 5.13811 | 36754 ft | 469 kts | 216° |
| 2026-05-04 20:23 | 16.88708 | 5.10312 | 36764 ft | 469 kts | 216° |
| 2026-05-04 20:24 | 16.83103 | 5.06813 | 36759 ft | 470 kts | 216° |
| 2026-05-04 20:24 | 16.77488 | 5.03310 | 36758 ft | 470 kts | 216° |
| 2026-05-04 20:25 | 16.71857 | 4.99799 | 36762 ft | 470 kts | 216° |
| 2026-05-04 20:25 | 16.66269 | 4.96319 | 36761 ft | 470 kts | 216° |
| 2026-05-04 20:26 | 16.60625 | 4.92806 | 36745 ft | 470 kts | 216° |
| 2026-05-04 20:26 | 16.55007 | 4.89310 | 36759 ft | 470 kts | 216° |
| 2026-05-04 20:27 | 16.49427 | 4.85841 | 36758 ft | 470 kts | 216° |
| 2026-05-04 20:27 | 16.43814 | 4.82353 | 36757 ft | 470 kts | 216° |
| 2026-05-04 20:28 | 16.38184 | 4.78859 | 36760 ft | 470 kts | 216° |
| 2026-05-04 20:28 | 16.32565 | 4.75373 | 36761 ft | 470 kts | 216° |
| 2026-05-04 20:29 | 16.26950 | 4.71890 | 36746 ft | 470 kts | 216° |
| 2026-05-04 20:29 | 16.21324 | 4.68405 | 36748 ft | 470 kts | 216° |
| 2026-05-04 20:30 | 16.15706 | 4.64925 | 36765 ft | 470 kts | 216° |
| 2026-05-04 20:30 | 16.10088 | 4.61448 | 36769 ft | 470 kts | 216° |
| 2026-05-04 20:31 | 16.04430 | 4.58024 | 36773 ft | 472 kts | 212° |
| 2026-05-04 20:31 | 15.98453 | 4.55208 | 36755 ft | 476 kts | 209° |
| 2026-05-04 20:32 | 15.92369 | 4.52461 | 36740 ft | 477 kts | 208° |
| 2026-05-04 20:32 | 15.86270 | 4.49687 | 36766 ft | 479 kts | 208° |
| 2026-05-04 20:33 | 15.80163 | 4.46891 | 36765 ft | 481 kts | 208° |
| 2026-05-04 20:33 | 15.74020 | 4.44070 | 36764 ft | 483 kts | 208° |
| 2026-05-04 20:34 | 15.67860 | 4.41242 | 36761 ft | 484 kts | 208° |
| 2026-05-04 20:34 | 15.61693 | 4.38416 | 36761 ft | 485 kts | 208° |
| 2026-05-04 20:35 | 15.55558 | 4.35604 | 36754 ft | 485 kts | 208° |
| 2026-05-04 20:35 | 15.49333 | 4.32756 | 36759 ft | 486 kts | 208° |
| 2026-05-04 20:36 | 15.43166 | 4.29937 | 36762 ft | 487 kts | 208° |
| 2026-05-04 20:36 | 15.36957 | 4.27098 | 36763 ft | 488 kts | 208° |
| 2026-05-04 20:37 | 15.30736 | 4.24255 | 36756 ft | 489 kts | 208° |
| 2026-05-04 20:37 | 15.24495 | 4.21406 | 36752 ft | 489 kts | 208° |
| 2026-05-04 20:38 | 15.18277 | 4.18570 | 36761 ft | 487 kts | 208° |
| 2026-05-04 20:38 | 15.12081 | 4.15745 | 36756 ft | 486 kts | 208° |
| 2026-05-04 20:39 | 15.05931 | 4.12943 | 36758 ft | 485 kts | 208° |
| 2026-05-04 20:39 | 14.99733 | 4.10120 | 36759 ft | 485 kts | 208° |
| 2026-05-04 20:40 | 14.93564 | 4.07313 | 36756 ft | 484 kts | 208° |
| 2026-05-04 20:40 | 14.87403 | 4.04510 | 36750 ft | 484 kts | 208° |
| 2026-05-04 20:41 | 14.81245 | 4.01712 | 36759 ft | 483 kts | 208° |
| 2026-05-04 20:41 | 14.75085 | 3.98914 | 36759 ft | 483 kts | 208° |
| 2026-05-04 20:42 | 14.68957 | 3.96132 | 36759 ft | 483 kts | 208° |
| 2026-05-04 20:42 | 14.62798 | 3.93338 | 36756 ft | 484 kts | 208° |
| 2026-05-04 20:43 | 14.56636 | 3.90544 | 36761 ft | 484 kts | 208° |
| 2026-05-04 20:43 | 14.50469 | 3.87749 | 36762 ft | 484 kts | 208° |
| 2026-05-04 20:44 | 14.44330 | 3.84969 | 36764 ft | 484 kts | 208° |
| 2026-05-04 20:44 | 14.38156 | 3.82175 | 36764 ft | 485 kts | 208° |
| 2026-05-04 20:45 | 14.31983 | 3.79384 | 36766 ft | 484 kts | 208° |
| 2026-05-04 20:45 | 14.25796 | 3.76587 | 36768 ft | 484 kts | 208° |
| 2026-05-04 20:46 | 14.19629 | 3.73801 | 36765 ft | 484 kts | 208° |
| 2026-05-04 20:46 | 14.13467 | 3.71019 | 36764 ft | 483 kts | 208° |
| 2026-05-04 20:47 | 14.07314 | 3.68243 | 36770 ft | 482 kts | 208° |
| 2026-05-04 20:47 | 14.01168 | 3.65471 | 36774 ft | 482 kts | 208° |
| 2026-05-04 20:48 | 13.95022 | 3.62701 | 36779 ft | 482 kts | 208° |
| 2026-05-04 20:48 | 13.88872 | 3.59931 | 36779 ft | 482 kts | 208° |
| 2026-05-04 20:49 | 13.82771 | 3.57185 | 36765 ft | 482 kts | 208° |
| 2026-05-04 20:49 | 13.76626 | 3.54420 | 36780 ft | 482 kts | 208° |
| 2026-05-04 20:50 | 13.70480 | 3.51656 | 36778 ft | 482 kts | 208° |
| 2026-05-04 20:50 | 13.64332 | 3.48893 | 36780 ft | 482 kts | 208° |
| 2026-05-04 20:51 | 13.58184 | 3.46131 | 36789 ft | 482 kts | 208° |
| 2026-05-04 20:51 | 13.52037 | 3.43352 | 36785 ft | 482 kts | 209° |
| 2026-05-04 20:52 | 13.45927 | 3.40509 | 36779 ft | 482 kts | 209° |
| 2026-05-04 20:52 | 13.39820 | 3.37652 | 36787 ft | 482 kts | 209° |
| 2026-05-04 20:53 | 13.33706 | 3.34802 | 36790 ft | 483 kts | 209° |
| 2026-05-04 20:53 | 13.27584 | 3.31957 | 36794 ft | 483 kts | 209° |
| 2026-05-04 20:54 | 13.21782 | 3.29265 | 36795 ft | 483 kts | 209° |
| 2026-05-04 20:54 | 13.15652 | 3.26421 | 36795 ft | 483 kts | 209° |
| 2026-05-04 20:55 | 13.09519 | 3.23577 | 36786 ft | 483 kts | 208° |
| 2026-05-04 20:55 | 13.03396 | 3.20740 | 36800 ft | 483 kts | 208° |
| 2026-05-04 20:56 | 12.97318 | 3.17925 | 36799 ft | 483 kts | 208° |
| 2026-05-04 20:56 | 12.91173 | 3.15080 | 36796 ft | 483 kts | 208° |
| 2026-05-04 20:57 | 12.85058 | 3.12251 | 36799 ft | 482 kts | 208° |
| 2026-05-04 20:57 | 12.78945 | 3.09424 | 36801 ft | 482 kts | 208° |
| 2026-05-04 20:58 | 12.72886 | 3.06622 | 36788 ft | 483 kts | 207° |
| 2026-05-04 20:58 | 12.66751 | 3.03788 | 36816 ft | 485 kts | 206° |
| 2026-05-04 20:59 | 12.60585 | 3.00941 | 36810 ft | 487 kts | 206° |
| 2026-05-04 20:59 | 12.54426 | 2.98099 | 36805 ft | 489 kts | 206° |
| 2026-05-04 21:00 | 12.48181 | 2.95219 | 36805 ft | 490 kts | 206° |
| 2026-05-04 21:00 | 12.41963 | 2.92353 | 36814 ft | 490 kts | 206° |
| 2026-05-04 21:01 | 12.35743 | 2.89487 | 36807 ft | 490 kts | 206° |
| 2026-05-04 21:01 | 12.29527 | 2.86625 | 36816 ft | 489 kts | 206° |
| 2026-05-04 21:02 | 12.23325 | 2.83771 | 36814 ft | 488 kts | 206° |
| 2026-05-04 21:02 | 12.17120 | 2.80916 | 36819 ft | 488 kts | 206° |
| 2026-05-04 21:03 | 12.10937 | 2.78074 | 36819 ft | 487 kts | 206° |
| 2026-05-04 21:03 | 12.04800 | 2.75253 | 36815 ft | 487 kts | 206° |
| 2026-05-04 21:04 | 11.98621 | 2.72415 | 36820 ft | 487 kts | 206° |
| 2026-05-04 21:04 | 11.92575 | 2.69639 | 36828 ft | 487 kts | 206° |
| 2026-05-04 21:05 | 11.86396 | 2.66804 | 36834 ft | 487 kts | 206° |
| 2026-05-04 21:05 | 11.80204 | 2.63964 | 36828 ft | 488 kts | 206° |
| 2026-05-04 21:06 | 11.74006 | 2.61123 | 36829 ft | 488 kts | 206° |
| 2026-05-04 21:06 | 11.67810 | 2.58284 | 36835 ft | 489 kts | 206° |
| 2026-05-04 21:07 | 11.61609 | 2.55444 | 36834 ft | 489 kts | 206° |
| 2026-05-04 21:07 | 11.55398 | 2.52601 | 36842 ft | 489 kts | 206° |
| 2026-05-04 21:08 | 11.49180 | 2.49756 | 36842 ft | 490 kts | 206° |
| 2026-05-04 21:08 | 11.42958 | 2.46911 | 36844 ft | 490 kts | 206° |
| 2026-05-04 21:09 | 11.36732 | 2.44065 | 36848 ft | 490 kts | 206° |
| 2026-05-04 21:09 | 11.31518 | 2.41683 | 36847 ft | 490 kts | 206° |
| 2026-05-04 21:10 | 11.25337 | 2.38860 | 36843 ft | 490 kts | 205° |
| 2026-05-04 21:10 | 11.19114 | 2.36019 | 36850 ft | 489 kts | 205° |
| 2026-05-04 21:11 | 11.12900 | 2.33184 | 36849 ft | 489 kts | 205° |
| 2026-05-04 21:11 | 11.06691 | 2.30351 | 36849 ft | 489 kts | 205° |
| 2026-05-04 21:12 | 11.00582 | 2.27322 | 36861 ft | 487 kts | 212° |
| 2026-05-04 21:12 | 10.95101 | 2.23331 | 36856 ft | 484 kts | 221° |
| 2026-05-04 21:13 | 10.89929 | 2.18938 | 36856 ft | 484 kts | 221° |
| 2026-05-04 21:13 | 10.84754 | 2.14549 | 36857 ft | 484 kts | 221° |
| 2026-05-04 21:14 | 10.79558 | 2.10180 | 36857 ft | 484 kts | 221° |
| 2026-05-04 21:14 | 10.74358 | 2.05830 | 36857 ft | 484 kts | 221° |
| 2026-05-04 21:15 | 10.69185 | 2.01506 | 36863 ft | 484 kts | 221° |
| 2026-05-04 21:15 | 10.63980 | 1.97156 | 36866 ft | 485 kts | 220° |
| 2026-05-04 21:16 | 10.58772 | 1.92805 | 36864 ft | 485 kts | 220° |
| 2026-05-04 21:16 | 10.53653 | 1.88529 | 36874 ft | 485 kts | 220° |
| 2026-05-04 21:17 | 10.48440 | 1.84178 | 36875 ft | 485 kts | 220° |
| 2026-05-04 21:17 | 10.43233 | 1.79833 | 36876 ft | 485 kts | 220° |
| 2026-05-04 21:18 | 10.38024 | 1.75488 | 36883 ft | 484 kts | 220° |
| 2026-05-04 21:18 | 10.32812 | 1.71143 | 36881 ft | 484 kts | 220° |
| 2026-05-04 21:19 | 10.27601 | 1.66800 | 36883 ft | 484 kts | 220° |
| 2026-05-04 21:19 | 10.22394 | 1.62462 | 36884 ft | 484 kts | 220° |
| 2026-05-04 21:20 | 10.17182 | 1.58123 | 36872 ft | 485 kts | 220° |
| 2026-05-04 21:20 | 10.11946 | 1.53765 | 36889 ft | 488 kts | 220° |
| 2026-05-04 21:21 | 10.06690 | 1.49394 | 36895 ft | 490 kts | 220° |
| 2026-05-04 21:21 | 10.01414 | 1.45006 | 36886 ft | 491 kts | 220° |
| 2026-05-04 21:22 | 9.96121 | 1.40606 | 36882 ft | 492 kts | 220° |
| 2026-05-04 21:22 | 9.90829 | 1.36209 | 36876 ft | 492 kts | 220° |
| 2026-05-04 21:23 | 9.85539 | 1.31816 | 36875 ft | 491 kts | 220° |
| 2026-05-04 21:23 | 9.80254 | 1.27430 | 36934 ft | 490 kts | 220° |
| 2026-05-04 21:24 | 9.75014 | 1.23081 | 36951 ft | 490 kts | 220° |
| 2026-05-04 21:24 | 9.69748 | 1.18714 | 36958 ft | 489 kts | 220° |
| 2026-05-04 21:25 | 9.64479 | 1.14345 | 36955 ft | 489 kts | 220° |
| 2026-05-04 21:25 | 9.59218 | 1.09984 | 36935 ft | 488 kts | 220° |
| 2026-05-04 21:26 | 9.53970 | 1.05636 | 36910 ft | 487 kts | 220° |
| 2026-05-04 21:26 | 9.48698 | 1.01344 | 36898 ft | 486 kts | 216° |
| 2026-05-04 21:27 | 9.42866 | 0.97879 | 36877 ft | 488 kts | 206° |
| 2026-05-04 21:27 | 9.36556 | 0.95325 | 36887 ft | 490 kts | 202° |
| 2026-05-04 21:28 | 9.30176 | 0.92893 | 36881 ft | 491 kts | 202° |
| 2026-05-04 21:28 | 9.23780 | 0.90428 | 36864 ft | 492 kts | 202° |
| 2026-05-04 21:29 | 9.17380 | 0.87933 | 36868 ft | 493 kts | 202° |
| 2026-05-04 21:29 | 9.11074 | 0.85465 | 36868 ft | 494 kts | 202° |
| 2026-05-04 21:30 | 9.04662 | 0.82957 | 36863 ft | 494 kts | 202° |
| 2026-05-04 21:30 | 8.98245 | 0.80450 | 36866 ft | 494 kts | 202° |
| 2026-05-04 21:31 | 8.88633 | 0.76697 | 36866 ft | 493 kts | 202° |
| 2026-05-04 21:32 | 8.82233 | 0.74200 | 36858 ft | 493 kts | 202° |
| 2026-05-04 21:32 | 8.75843 | 0.71707 | 36862 ft | 492 kts | 202° |
| 2026-05-04 21:33 | 8.69456 | 0.69216 | 36860 ft | 492 kts | 202° |
| 2026-05-04 21:33 | 8.63072 | 0.66728 | 36871 ft | 492 kts | 202° |
| 2026-05-04 21:34 | 8.56690 | 0.64241 | 36870 ft | 492 kts | 202° |
| 2026-05-04 21:34 | 8.50309 | 0.61755 | 36869 ft | 492 kts | 202° |
| 2026-05-04 21:35 | 8.43921 | 0.59268 | 36867 ft | 492 kts | 202° |
| 2026-05-04 21:35 | 8.37528 | 0.56779 | 36861 ft | 493 kts | 202° |
| 2026-05-04 21:36 | 8.31177 | 0.54307 | 36865 ft | 493 kts | 202° |
| 2026-05-04 21:36 | 8.24886 | 0.51860 | 36871 ft | 493 kts | 202° |
| 2026-05-04 21:37 | 8.18475 | 0.49367 | 36874 ft | 494 kts | 202° |
| 2026-05-04 21:37 | 8.12096 | 0.46888 | 36866 ft | 494 kts | 202° |
| 2026-05-04 21:38 | 8.05761 | 0.44426 | 36852 ft | 494 kts | 202° |
| 2026-05-04 21:38 | 7.99346 | 0.41934 | 36857 ft | 494 kts | 202° |
| 2026-05-04 21:39 | 7.92929 | 0.39442 | 36855 ft | 494 kts | 202° |
| 2026-05-04 21:39 | 7.86508 | 0.36950 | 36861 ft | 495 kts | 202° |
| 2026-05-04 21:40 | 7.80083 | 0.34456 | 36859 ft | 495 kts | 202° |
| 2026-05-04 21:40 | 7.73647 | 0.31960 | 36861 ft | 496 kts | 202° |
| 2026-05-04 21:41 | 7.67199 | 0.29459 | 36850 ft | 496 kts | 202° |
| 2026-05-04 21:41 | 7.60754 | 0.26960 | 36851 ft | 497 kts | 202° |
| 2026-05-04 21:42 | 7.54304 | 0.24460 | 36853 ft | 497 kts | 202° |
| 2026-05-04 21:42 | 7.47882 | 0.21972 | 36290 ft | 495 kts | 202° |
| 2026-05-04 21:42 | 7.44665 | 0.20726 | 35593 ft | 495 kts | 202° |
| 2026-05-04 21:43 | 7.41448 | 0.19480 | 34762 ft | 497 kts | 202° |
| 2026-05-04 21:43 | 7.38211 | 0.18227 | 33881 ft | 500 kts | 202° |
| 2026-05-04 21:43 | 7.34966 | 0.16970 | 33150 ft | 498 kts | 202° |
| 2026-05-04 21:43 | 7.31747 | 0.15724 | 32537 ft | 493 kts | 202° |
| 2026-05-04 21:44 | 7.28553 | 0.14489 | 31916 ft | 490 kts | 202° |
| 2026-05-04 21:44 | 7.25387 | 0.13264 | 31307 ft | 486 kts | 202° |
| 2026-05-04 21:44 | 7.22237 | 0.12045 | 30700 ft | 483 kts | 202° |
| 2026-05-04 21:44 | 7.19110 | 0.10836 | 30126 ft | 480 kts | 202° |
| 2026-05-04 21:45 | 7.16009 | 0.09636 | 29509 ft | 476 kts | 202° |
| 2026-05-04 21:45 | 7.12934 | 0.08447 | 28871 ft | 472 kts | 202° |
| 2026-05-04 21:45 | 7.09880 | 0.07265 | 28239 ft | 468 kts | 201° |
| 2026-05-04 21:45 | 7.06850 | 0.06094 | 27614 ft | 465 kts | 201° |
| 2026-05-04 21:46 | 7.03844 | 0.04931 | 27004 ft | 461 kts | 201° |
| 2026-05-04 21:46 | 7.00860 | 0.03778 | 26412 ft | 458 kts | 201° |
| 2026-05-04 21:46 | 6.97895 | 0.02632 | 25833 ft | 455 kts | 201° |
| 2026-05-04 21:46 | 6.94952 | 0.01494 | 25279 ft | 452 kts | 201° |
| 2026-05-04 21:47 | 6.92025 | 0.00363 | 24707 ft | 449 kts | 201° |
| 2026-05-04 21:47 | 6.89115 | -0.00761 | 24151 ft | 446 kts | 201° |
| 2026-05-04 21:47 | 6.86222 | -0.01879 | 23617 ft | 444 kts | 201° |
| 2026-05-04 21:47 | 6.83349 | -0.02989 | 23024 ft | 441 kts | 200° |
| 2026-05-04 21:48 | 6.80559 | -0.04067 | 22434 ft | 438 kts | 200° |
| 2026-05-04 21:48 | 6.77722 | -0.05162 | 21945 ft | 434 kts | 200° |
| 2026-05-04 21:48 | 6.74923 | -0.06243 | 21439 ft | 429 kts | 200° |
| 2026-05-04 21:48 | 6.72152 | -0.07314 | 20958 ft | 424 kts | 200° |
| 2026-05-04 21:49 | 6.69409 | -0.08372 | 20482 ft | 420 kts | 199° |
| 2026-05-04 21:49 | 6.66692 | -0.09421 | 20027 ft | 417 kts | 199° |
| 2026-05-04 21:49 | 6.63976 | -0.10348 | 19543 ft | 408 kts | 190° |
| 2026-05-04 21:49 | 6.61198 | -0.10462 | 19081 ft | 394 kts | 170° |
| 2026-05-04 21:50 | 6.58507 | -0.10105 | 18708 ft | 388 kts | 170° |
| 2026-05-04 21:50 | 6.55836 | -0.09805 | 18306 ft | 385 kts | 171° |
| 2026-05-04 21:50 | 6.53177 | -0.09533 | 17876 ft | 382 kts | 171° |
| 2026-05-04 21:50 | 6.50543 | -0.09273 | 17425 ft | 379 kts | 171° |
| 2026-05-04 21:51 | 6.47929 | -0.09018 | 16971 ft | 376 kts | 171° |
| 2026-05-04 21:51 | 6.45335 | -0.08764 | 16531 ft | 373 kts | 171° |
| 2026-05-04 21:51 | 6.42760 | -0.08510 | 16090 ft | 371 kts | 170° |
| 2026-05-04 21:51 | 6.40197 | -0.08258 | 15662 ft | 368 kts | 170° |
| 2026-05-04 21:52 | 6.37652 | -0.08007 | 15243 ft | 366 kts | 170° |
| 2026-05-04 21:52 | 6.35129 | -0.07757 | 14827 ft | 364 kts | 169° |
| 2026-05-04 21:52 | 6.32615 | -0.07509 | 14414 ft | 362 kts | 169° |
| 2026-05-04 21:52 | 6.30119 | -0.07262 | 14006 ft | 359 kts | 169° |
| 2026-05-04 21:53 | 6.27680 | -0.07020 | 13595 ft | 357 kts | 169° |
| 2026-05-04 21:53 | 6.25212 | -0.06776 | 13130 ft | 355 kts | 168° |
| 2026-05-04 21:53 | 6.22760 | -0.06534 | 12654 ft | 354 kts | 168° |
| 2026-05-04 21:53 | 6.20305 | -0.06291 | 12159 ft | 354 kts | 168° |
| 2026-05-04 21:54 | 6.17850 | -0.06048 | 11639 ft | 355 kts | 168° |
| 2026-05-04 21:54 | 6.15390 | -0.05803 | 11089 ft | 356 kts | 169° |
| 2026-05-04 21:54 | 6.12929 | -0.05566 | 10576 ft | 354 kts | 168° |
| 2026-05-04 21:54 | 6.10484 | -0.05328 | 10064 ft | 352 kts | 168° |
| 2026-05-04 21:55 | 6.08067 | -0.05085 | 9566 ft | 344 kts | 168° |
| 2026-05-04 21:55 | 6.06553 | -0.04932 | 9213 ft | 337 kts | 168° |
| 2026-05-04 21:55 | 6.04250 | -0.04703 | 8671 ft | 329 kts | 169° |
| 2026-05-04 21:55 | 6.02001 | -0.04482 | 8129 ft | 321 kts | 169° |
| 2026-05-04 21:56 | 5.99798 | -0.04265 | 7588 ft | 314 kts | 169° |
| 2026-05-04 21:56 | 5.97654 | -0.04051 | 7068 ft | 305 kts | 170° |
| 2026-05-04 21:56 | 5.95580 | -0.03852 | 6547 ft | 295 kts | 171° |
| 2026-05-04 21:56 | 5.93566 | -0.03658 | 6026 ft | 288 kts | 173° |
| 2026-05-04 21:57 | 5.91581 | -0.03879 | 5456 ft | 289 kts | 195° |
| 2026-05-04 21:57 | 5.89701 | -0.04630 | 5043 ft | 292 kts | 201° |
| 2026-05-04 21:57 | 5.87852 | -0.05413 | 4889 ft | 284 kts | 201° |
| 2026-05-04 21:57 | 5.86066 | -0.06158 | 4823 ft | 272 kts | 200° |
| 2026-05-04 21:58 | 5.84378 | -0.06858 | 4759 ft | 254 kts | 200° |
| 2026-05-04 21:58 | 5.82788 | -0.07516 | 4455 ft | 238 kts | 200° |
| 2026-05-04 21:58 | 5.81316 | -0.08130 | 4234 ft | 221 kts | 201° |
| 2026-05-04 21:58 | 5.79942 | -0.08711 | 3931 ft | 207 kts | 200° |
| 2026-05-04 21:59 | 5.78603 | -0.09264 | 3654 ft | 209 kts | 200° |
| 2026-05-04 21:59 | 5.77265 | -0.09779 | 3328 ft | 202 kts | 201° |
| 2026-05-04 21:59 | 5.76013 | -0.10304 | 3084 ft | 190 kts | 202° |
| 2026-05-04 21:59 | 5.74809 | -0.10815 | 2894 ft | 186 kts | 202° |
| 2026-05-04 22:00 | 5.73649 | -0.11302 | 2643 ft | 178 kts | 201° |
| 2026-05-04 22:00 | 5.72533 | -0.11744 | 2373 ft | 166 kts | 200° |
| 2026-05-04 22:00 | 5.71497 | -0.12161 | 2195 ft | 157 kts | 200° |
| 2026-05-04 22:00 | 5.70517 | -0.12559 | 1971 ft | 151 kts | 201° |
| 2026-05-04 22:01 | 5.69568 | -0.12967 | 1792 ft | 148 kts | 202° |
| 2026-05-04 22:01 | 5.68627 | -0.13383 | 1615 ft | 148 kts | 201° |
| 2026-05-04 22:01 | 5.67675 | -0.13765 | 1408 ft | 146 kts | 201° |
| 2026-05-04 22:01 | 5.66740 | -0.14153 | 1241 ft | 145 kts | 202° |
| 2026-05-04 22:02 | 5.65813 | -0.14544 | 1096 ft | 146 kts | 199° |
| 2026-05-04 22:02 | 5.64876 | -0.14928 | 886 ft | 144 kts | 200° |
| 2026-05-04 22:02 | 5.63941 | -0.15303 | 727 ft | 146 kts | 201° |
| 2026-05-04 22:02 | 5.63011 | -0.15689 | 533 ft | 146 kts | 202° |
| 2026-05-04 22:03 | 5.62079 | -0.16077 | 359 ft | 145 kts | 204° |
| 2026-05-04 22:03 | 5.61146 | -0.16464 | 230 ft | 142 kts | 203° |
| 2026-05-04 22:03 | 5.60322 | -0.16806 | 220 ft | 113 kts | 202° |
| 2026-05-04 22:03 | 5.59709 | -0.17058 | 215 ft | 85 kts | 202° |
| 2026-05-04 22:04 | 5.59286 | -0.17234 | 211 ft | 35 kts | 202° |
| 2026-05-04 22:04 | 5.59192 | -0.17384 | 206 ft | 28 kts | 290° |
| 2026-05-04 22:04 | 5.59349 | -0.17415 | 213 ft | 26 kts | 21° |
| 2026-05-04 22:04 | 5.59507 | -0.17350 | 218 ft | 26 kts | 23° |
| 2026-05-04 22:05 | 5.59669 | -0.17283 | 216 ft | 23 kts | 22° |
| 2026-05-04 22:05 | 5.59749 | -0.17250 | 221 ft | 8 kts | 24° |
| 2026-05-04 22:05 | 5.59798 | -0.17228 | 220 ft | 8 kts | 24° |
| 2026-05-04 22:05 | 5.59847 | -0.17208 | 217 ft | 8 kts | 20° |
| 2026-05-04 22:06 | 5.59899 | -0.17189 | 216 ft | 9 kts | 20° |
| 2026-05-04 22:06 | 5.59970 | -0.17159 | 221 ft | 12 kts | 22° |
| 2026-05-04 22:06 | 5.60047 | -0.17127 | 220 ft | 12 kts | 23° |
| 2026-05-04 22:06 | 5.60126 | -0.17093 | 219 ft | 12 kts | 22° |
| 2026-05-04 22:07 | 5.60203 | -0.17062 | 219 ft | 11 kts | 22° |
| 2026-05-04 22:07 | 5.60246 | -0.17063 | 222 ft | 6 kts | 320° |
| 2026-05-04 22:07 | 5.60266 | -0.17100 | 222 ft | 3 kts | 294° |
| 2026-05-04 22:07 | 5.60273 | -0.17117 | 219 ft | 2 kts | 293° |
| 2026-05-04 22:08 | 5.60279 | -0.17130 | 219 ft | 1 kts | 292° |
| 2026-05-04 22:08 | 5.60281 | -0.17136 | 219 ft | 0 kts | 292° |